EXS97UE LEPA-EGCC
Flight info
| Callsign | EXS97UE |
|---|---|
| Flight time | N/A |
| Altitude | 40000 |
| Route | DRAGO N863 PAPOS DCT UMURE DCT XIKEN DCT KARES DCT ARBEK N863 USKAR DCT MOPAS N863 GIROM DCT GONUP DCT TUPAR UN861 ANG DCT AKIKI UN867 AVANT UM184 HEMEL T420 ELVOS |
| Aircraft | A332/H-SDE3GHIJ2J3J5M1RVWXY/LB2D1 |
Departure
| Time | 2026-05-04 17:39 |
|---|---|
| Airport | Palma de Mallorca Airport (LEPA) |
Arrival
| Time | N/A |
|---|---|
| Airport | Manchester Airport (EGCC) |
| Time | Latitude | Longitude | Altitude | Speed | Heading |
|---|---|---|---|---|---|
| 2026-05-04 16:48 | 39.55275 | 2.72939 | 42 ft | 0 kts | 193° |
| 2026-05-04 17:29 | 39.55242 | 2.72929 | 42 ft | 5 kts | 193° |
| 2026-05-04 17:29 | 39.55110 | 2.72742 | 42 ft | 13 kts | 238° |
| 2026-05-04 17:30 | 39.55141 | 2.72482 | 42 ft | 14 kts | 355° |
| 2026-05-04 17:31 | 39.55286 | 2.72720 | 42 ft | 20 kts | 58° |
| 2026-05-04 17:31 | 39.55526 | 2.73231 | 42 ft | 24 kts | 58° |
| 2026-05-04 17:32 | 39.55710 | 2.73616 | 42 ft | 26 kts | 58° |
| 2026-05-04 17:33 | 39.55977 | 2.74184 | 42 ft | 14 kts | 58° |
| 2026-05-04 17:33 | 39.56044 | 2.74272 | 42 ft | 14 kts | 27° |
| 2026-05-04 17:34 | 39.56135 | 2.74332 | 42 ft | 6 kts | 27° |
| 2026-05-04 17:34 | 39.56199 | 2.74340 | 42 ft | 10 kts | 336° |
| 2026-05-04 17:35 | 39.56207 | 2.74224 | 42 ft | 0 kts | 238° |
| 2026-05-04 17:38 | 39.56206 | 2.74220 | 42 ft | 3 kts | 238° |
| 2026-05-04 17:38 | 39.56140 | 2.74083 | 42 ft | 44 kts | 238° |
| 2026-05-04 17:39 | 39.55378 | 2.72473 | 144 ft | 152 kts | 238° |
| 2026-05-04 17:39 | 39.54818 | 2.71300 | 956 ft | 152 kts | 236° |
| 2026-05-04 17:39 | 39.54248 | 2.70155 | 1855 ft | 153 kts | 236° |
| 2026-05-04 17:40 | 39.53612 | 2.68911 | 2355 ft | 180 kts | 236° |
| 2026-05-04 17:40 | 39.52892 | 2.67495 | 2971 ft | 194 kts | 236° |
| 2026-05-04 17:40 | 39.52141 | 2.66012 | 3768 ft | 200 kts | 237° |
| 2026-05-04 17:40 | 39.51374 | 2.64490 | 4658 ft | 203 kts | 237° |
| 2026-05-04 17:41 | 39.50611 | 2.62983 | 5483 ft | 203 kts | 237° |
| 2026-05-04 17:41 | 39.49833 | 2.61451 | 6424 ft | 204 kts | 237° |
| 2026-05-04 17:41 | 39.49049 | 2.59909 | 7327 ft | 205 kts | 237° |
| 2026-05-04 17:41 | 39.48263 | 2.58363 | 8262 ft | 206 kts | 237° |
| 2026-05-04 17:42 | 39.47471 | 2.56803 | 9160 ft | 208 kts | 237° |
| 2026-05-04 17:42 | 39.46672 | 2.55231 | 10031 ft | 210 kts | 237° |
| 2026-05-04 17:42 | 39.45864 | 2.53639 | 10788 ft | 213 kts | 237° |
| 2026-05-04 17:42 | 39.45183 | 2.51935 | 11403 ft | 225 kts | 250° |
| 2026-05-04 17:43 | 39.45018 | 2.49818 | 11695 ft | 254 kts | 275° |
| 2026-05-04 17:43 | 39.45785 | 2.47621 | 11947 ft | 290 kts | 305° |
| 2026-05-04 17:43 | 39.47416 | 2.45849 | 12225 ft | 321 kts | 320° |
| 2026-05-04 17:43 | 39.49340 | 2.44223 | 12639 ft | 338 kts | 322° |
| 2026-05-04 17:44 | 39.51349 | 2.42567 | 13319 ft | 345 kts | 322° |
| 2026-05-04 17:44 | 39.53378 | 2.40868 | 14072 ft | 348 kts | 321° |
| 2026-05-04 17:44 | 39.55313 | 2.38983 | 14770 ft | 347 kts | 312° |
| 2026-05-04 17:44 | 39.57038 | 2.36780 | 15537 ft | 348 kts | 309° |
| 2026-05-04 17:45 | 39.58694 | 2.34529 | 16286 ft | 350 kts | 308° |
| 2026-05-04 17:45 | 39.60375 | 2.32222 | 17022 ft | 353 kts | 308° |
| 2026-05-04 17:45 | 39.62076 | 2.29888 | 17743 ft | 356 kts | 308° |
| 2026-05-04 17:45 | 39.63781 | 2.27551 | 18423 ft | 359 kts | 308° |